createdAt,value
2022-12-03T00:01:53.218Z,73.76
2022-12-03T00:06:04.898Z,73.91
2022-12-03T00:10:18.064Z,74.09
2022-12-03T00:14:29.630Z,73.55
2022-12-03T00:18:41.133Z,74.16
2022-12-03T00:22:52.663Z,73.90
2022-12-03T00:27:04.097Z,73.78
2022-12-03T00:31:15.956Z,73.76
2022-12-03T00:35:27.482Z,74.34
2022-12-03T00:39:38.915Z,74.22
2022-12-03T00:43:50.425Z,74.15
2022-12-03T00:48:01.994Z,74.54
2022-12-03T00:52:13.599Z,74.43
2022-12-03T00:56:25.097Z,74.63
2022-12-03T01:00:37.119Z,74.69
2022-12-03T01:04:48.683Z,74.86
2022-12-03T01:09:00.407Z,75.18
2022-12-03T01:13:12.019Z,75.55
2022-12-03T01:17:23.591Z,75.48
2022-12-03T01:21:35.204Z,75.32
2022-12-03T01:25:46.689Z,75.91
2022-12-03T01:29:58.304Z,75.47
2022-12-03T01:34:10.033Z,75.92
2022-12-03T01:38:21.527Z,75.95
2022-12-03T01:42:36.745Z,76.19
2022-12-03T01:46:49.047Z,76.23
2022-12-03T01:51:00.793Z,76.14
2022-12-03T01:55:21.097Z,76.29
2022-12-03T01:59:36.212Z,76.27
2022-12-03T02:03:47.975Z,76.33
2022-12-03T02:08:00.631Z,76.54
2022-12-03T02:12:14.641Z,76.65
2022-12-03T02:16:26.461Z,76.44
2022-12-03T02:20:47.667Z,76.15
2022-12-03T02:24:59.305Z,76.34
2022-12-03T02:29:11.328Z,76.62
2022-12-03T02:33:23.029Z,76.66
2022-12-03T02:37:37.318Z,76.46
2022-12-03T02:42:07.541Z,76.74
2022-12-03T02:46:20.773Z,76.57
2022-12-03T02:50:35.928Z,76.80
2022-12-03T02:54:48.432Z,76.69
2022-12-03T02:59:03.089Z,76.41
2022-12-03T03:03:16.910Z,76.80
2022-12-03T03:07:28.717Z,76.71
2022-12-03T03:11:40.365Z,76.85
2022-12-03T03:15:52.151Z,75.96
2022-12-03T03:20:06.572Z,75.68
2022-12-03T03:24:18.531Z,75.43
2022-12-03T03:28:34.594Z,75.55
2022-12-03T03:32:46.194Z,75.83
2022-12-03T03:36:58.079Z,75.20
2022-12-03T03:41:11.345Z,74.99
2022-12-03T03:45:28.726Z,74.70
2022-12-03T03:49:42.058Z,74.88
2022-12-03T03:53:54.169Z,74.57
2022-12-03T03:58:06.061Z,74.26
2022-12-03T04:02:24.652Z,74.32
2022-12-03T04:06:36.225Z,73.77
2022-12-03T04:11:06.286Z,72.88
2022-12-03T04:15:17.843Z,72.13
2022-12-03T04:19:29.360Z,72.56
2022-12-03T04:23:40.919Z,72.41
2022-12-03T04:28:11.146Z,72.31
2022-12-03T04:32:41.356Z,71.95
2022-12-03T04:36:52.973Z,72.04
2022-12-03T04:41:04.553Z,72.48
2022-12-03T04:45:16.177Z,72.82
2022-12-03T04:49:27.805Z,73.14
2022-12-03T04:53:44.726Z,73.00
2022-12-03T04:57:57.776Z,73.09
2022-12-03T05:02:09.418Z,72.56
2022-12-03T05:06:21.215Z,73.60
2022-12-03T05:10:32.793Z,73.29
2022-12-03T05:14:44.320Z,73.39
2022-12-03T05:18:55.954Z,73.38
2022-12-03T05:23:09.309Z,74.12
2022-12-03T05:27:23.845Z,74.19
2022-12-03T05:31:35.914Z,73.91
2022-12-03T05:35:48.157Z,74.06
2022-12-03T05:39:59.720Z,74.78
2022-12-03T05:44:13.222Z,74.39
2022-12-03T05:48:27.732Z,74.63
2022-12-03T05:52:39.308Z,75.10
2022-12-03T05:56:50.831Z,75.10
2022-12-03T06:01:02.397Z,75.27
2022-12-03T06:05:15.580Z,75.03
2022-12-03T06:09:27.154Z,75.32
2022-12-03T06:13:38.724Z,75.16
2022-12-03T06:17:50.336Z,75.37
2022-12-03T06:22:01.955Z,75.00
2022-12-03T06:26:14.958Z,75.50
2022-12-03T06:30:26.512Z,75.83
2022-12-03T06:34:38.139Z,75.65
2022-12-03T06:38:49.707Z,75.69
2022-12-03T06:43:01.287Z,75.82
2022-12-03T06:47:13.006Z,75.84
2022-12-03T06:51:24.568Z,76.22
2022-12-03T06:55:36.285Z,76.04
2022-12-03T06:59:47.875Z,76.64
2022-12-03T07:03:59.500Z,76.34
2022-12-03T07:08:11.152Z,76.35
2022-12-03T07:12:22.844Z,76.45
2022-12-03T07:16:38.637Z,76.83
2022-12-03T07:20:50.184Z,76.86
2022-12-03T07:25:01.882Z,76.84
2022-12-03T07:29:13.457Z,77.28
2022-12-03T07:33:24.967Z,77.42
2022-12-03T07:37:36.725Z,77.64
2022-12-03T07:41:48.303Z,77.73
2022-12-03T07:45:59.847Z,77.71
2022-12-03T07:50:12.591Z,77.75
2022-12-03T07:54:24.736Z,77.92
2022-12-03T07:58:36.404Z,77.67
2022-12-03T08:02:47.989Z,77.21
2022-12-03T08:06:59.540Z,77.31
2022-12-03T08:11:14.294Z,77.45
2022-12-03T08:15:31.168Z,77.19
2022-12-03T08:19:48.087Z,77.33
2022-12-03T08:24:09.723Z,77.35
2022-12-03T08:28:23.993Z,77.08
2022-12-03T08:32:36.085Z,77.14
2022-12-03T08:36:51.797Z,76.86
2022-12-03T08:41:07.673Z,76.90
2022-12-03T08:45:29.715Z,76.48
2022-12-03T08:49:44.854Z,76.78
2022-12-03T08:54:07.467Z,76.53
2022-12-03T08:58:33.291Z,76.89
2022-12-03T09:02:47.794Z,76.27
2022-12-03T09:06:59.501Z,76.78
2022-12-03T09:11:11.179Z,76.60
2022-12-03T09:15:22.772Z,76.79
2022-12-03T09:19:34.703Z,76.76
2022-12-03T09:23:46.233Z,76.54
2022-12-03T09:27:57.790Z,76.42
2022-12-03T09:32:13.674Z,76.45
2022-12-03T09:36:28.424Z,76.91
2022-12-03T09:40:40.120Z,76.53
2022-12-03T09:44:52.428Z,76.87
2022-12-03T09:49:12.303Z,76.83
2022-12-03T09:53:27.876Z,76.72
2022-12-03T09:57:39.662Z,76.58
2022-12-03T10:01:52.986Z,76.29
2022-12-03T10:06:04.700Z,76.41
2022-12-03T10:10:25.347Z,76.01
2022-12-03T10:14:36.882Z,76.25
2022-12-03T10:18:51.402Z,76.25
2022-12-03T10:23:03.018Z,75.95
2022-12-03T10:27:23.700Z,76.07
2022-12-03T10:31:36.512Z,76.67
2022-12-03T10:35:48.116Z,76.83
2022-12-03T10:40:12.133Z,77.06
2022-12-03T10:44:25.977Z,77.39
2022-12-03T10:48:38.336Z,77.51
2022-12-03T10:52:49.927Z,77.75
2022-12-03T10:57:02.176Z,77.70
2022-12-03T11:01:17.656Z,77.83
2022-12-03T11:05:29.302Z,78.14
2022-12-03T11:09:44.681Z,78.33
2022-12-03T11:14:03.268Z,78.11
2022-12-03T11:18:36.236Z,77.94
2022-12-03T11:22:51.429Z,78.58
2022-12-03T11:27:02.889Z,79.23
2022-12-03T11:31:33.690Z,79.08
2022-12-03T11:36:31.568Z,79.18
2022-12-03T11:41:23.776Z,79.48
2022-12-03T11:45:38.032Z,79.10
2022-12-03T11:49:49.700Z,79.17
2022-12-03T11:54:01.249Z,79.36
2022-12-03T11:58:30.446Z,79.25
2022-12-03T12:02:42.771Z,79.46
2022-12-03T12:06:54.326Z,79.29
2022-12-03T12:11:27.776Z,79.16
2022-12-03T12:15:40.438Z,79.43
2022-12-03T12:20:27.847Z,79.16
2022-12-03T12:24:45.632Z,78.91
2022-12-03T12:29:02.403Z,79.05
2022-12-03T12:33:19.659Z,78.83
2022-12-03T12:37:34.025Z,78.90
2022-12-03T12:41:48.944Z,78.94
2022-12-03T12:46:39.097Z,78.83
2022-12-03T12:50:44.645Z,78.90
2022-12-03T12:54:59.080Z,78.99
2022-12-03T12:59:18.504Z,79.32
2022-12-03T13:03:34.974Z,79.32
2022-12-03T13:07:46.640Z,78.83
2022-12-03T13:12:01.232Z,79.06
2022-12-03T13:16:27.992Z,79.15
2022-12-03T13:20:39.727Z,78.50
2022-12-03T13:24:54.307Z,78.71
2022-12-03T13:29:13.554Z,78.83
2022-12-03T13:33:27.957Z,78.88
2022-12-03T13:37:39.500Z,78.92
2022-12-03T13:42:09.475Z,79.55
2022-12-03T13:46:21.036Z,79.11
2022-12-03T13:50:40.043Z,79.29
2022-12-03T13:54:56.727Z,79.42
2022-12-03T13:59:08.889Z,79.29
2022-12-03T14:03:21.095Z,79.15
2022-12-03T14:07:32.590Z,79.65
2022-12-03T14:12:02.790Z,79.43
2022-12-03T14:16:14.328Z,79.25
2022-12-03T14:20:34.944Z,78.87
2022-12-03T14:24:46.813Z,79.14
2022-12-03T14:28:58.287Z,78.93
2022-12-03T14:33:09.885Z,79.33
2022-12-03T14:37:21.367Z,78.92
2022-12-03T14:41:51.497Z,79.08
2022-12-03T14:46:03.083Z,78.90
2022-12-03T14:50:30.110Z,79.27
2022-12-03T14:54:42.766Z,79.09
2022-12-03T14:58:54.436Z,79.00
2022-12-03T15:03:06.015Z,78.80
2022-12-03T15:07:17.492Z,78.59
2022-12-03T15:11:28.960Z,78.44
2022-12-03T15:15:40.444Z,78.87
2022-12-03T15:19:52.209Z,78.39
2022-12-03T15:24:04.151Z,78.51
2022-12-03T15:28:15.616Z,78.46
2022-12-03T15:32:27.059Z,78.46
2022-12-03T15:36:38.548Z,78.63
2022-12-03T15:40:50.224Z,78.39
2022-12-03T15:45:01.690Z,78.46
2022-12-03T15:49:13.198Z,78.43
2022-12-03T15:53:24.676Z,78.50
2022-12-03T15:57:36.301Z,78.21
2022-12-03T16:01:47.782Z,78.17
2022-12-03T16:05:59.811Z,78.13
2022-12-03T16:10:11.784Z,77.99
2022-12-03T16:14:23.268Z,78.00
2022-12-03T16:18:34.803Z,78.06
2022-12-03T16:22:46.242Z,77.72
2022-12-03T16:26:57.717Z,77.84
2022-12-03T16:31:09.231Z,77.88
2022-12-03T16:35:23.170Z,77.75
2022-12-03T16:39:34.603Z,77.85
2022-12-03T16:43:48.348Z,77.55
2022-12-03T16:48:01.430Z,77.63
2022-12-03T16:52:12.882Z,77.50
2022-12-03T16:56:24.321Z,77.89
2022-12-03T17:00:35.912Z,77.62
2022-12-03T17:04:47.379Z,77.33
2022-12-03T17:08:59.044Z,77.78
2022-12-03T17:13:11.016Z,77.71
2022-12-03T17:17:48.049Z,77.74
2022-12-03T17:21:59.795Z,77.49
2022-12-03T17:26:11.265Z,77.74
2022-12-03T17:30:23.081Z,77.36
2022-12-03T17:34:34.591Z,77.29
2022-12-03T17:38:46.066Z,77.52
2022-12-03T17:42:57.581Z,77.63
2022-12-03T17:47:10.723Z,77.94
2022-12-03T17:51:22.267Z,77.85
2022-12-03T17:55:41.113Z,78.11
2022-12-03T17:59:57.345Z,77.88
2022-12-03T18:04:10.393Z,77.93
2022-12-03T18:08:21.955Z,78.25
2022-12-03T18:12:33.640Z,77.88
2022-12-03T18:16:45.119Z,78.14
2022-12-03T18:21:01.283Z,78.14
2022-12-03T18:25:13.291Z,77.96
2022-12-03T18:29:26.117Z,78.20
2022-12-03T18:33:37.546Z,78.05
2022-12-03T18:37:50.964Z,78.23
2022-12-03T18:42:14.492Z,78.00
2022-12-03T18:46:51.817Z,78.14
2022-12-03T18:50:57.459Z,77.62
2022-12-03T18:55:17.355Z,77.19
2022-12-03T18:59:28.803Z,77.59
2022-12-03T19:03:40.264Z,77.83
2022-12-03T19:07:53.722Z,77.43
2022-12-03T19:12:11.267Z,77.50
2022-12-03T19:16:25.841Z,77.58
2022-12-03T19:20:40.314Z,77.29
2022-12-03T19:24:51.863Z,77.26
2022-12-03T19:29:03.645Z,76.85
2022-12-03T19:33:18.023Z,77.06
2022-12-03T19:37:32.330Z,77.03
2022-12-03T19:41:44.644Z,76.54
2022-12-03T19:45:56.229Z,76.63
2022-12-03T19:50:08.612Z,77.13
2022-12-03T19:54:20.075Z,77.32
2022-12-03T19:58:31.670Z,76.80
2022-12-03T20:02:43.203Z,77.20
2022-12-03T20:06:54.768Z,76.77
2022-12-03T20:11:17.136Z,76.69
2022-12-03T20:15:29.098Z,76.85
2022-12-03T20:19:40.596Z,76.82
2022-12-03T20:23:52.179Z,76.93
2022-12-03T20:28:03.812Z,76.80
2022-12-03T20:32:15.633Z,76.87
2022-12-03T20:36:28.715Z,76.64
2022-12-03T20:40:40.193Z,76.80
2022-12-03T20:44:52.990Z,77.20
2022-12-03T20:49:04.735Z,77.08
2022-12-03T20:53:24.676Z,76.79
2022-12-03T20:57:36.530Z,76.93
2022-12-03T21:01:48.091Z,76.79
2022-12-03T21:06:01.394Z,76.71
2022-12-03T21:10:32.814Z,76.52
2022-12-03T21:14:44.348Z,76.47
2022-12-03T21:18:56.000Z,77.04
2022-12-03T21:23:08.163Z,76.75
2022-12-03T21:27:21.806Z,76.80
2022-12-03T21:31:35.384Z,76.62
2022-12-03T21:35:46.844Z,76.86
2022-12-03T21:39:58.341Z,76.97
2022-12-03T21:44:10.312Z,76.82
2022-12-03T21:48:22.293Z,76.84
2022-12-03T21:52:34.875Z,76.80
2022-12-03T21:56:46.402Z,77.00
2022-12-03T22:00:58.004Z,76.83
2022-12-03T22:05:10.786Z,76.87
2022-12-03T22:09:26.522Z,76.98
2022-12-03T22:13:39.736Z,77.10
2022-12-03T22:17:51.186Z,77.16
2022-12-03T22:22:02.685Z,77.31
2022-12-03T22:26:16.176Z,77.04
2022-12-03T22:30:27.692Z,76.87
2022-12-03T22:34:40.867Z,77.40
2022-12-03T22:38:53.038Z,77.17
2022-12-03T22:43:29.564Z,77.11
2022-12-03T22:47:41.011Z,77.17
2022-12-03T22:51:52.495Z,77.11
2022-12-03T22:56:04.087Z,77.39
2022-12-03T23:00:28.907Z,77.04
2022-12-03T23:04:40.372Z,77.50
2022-12-03T23:08:52.241Z,77.60
2022-12-03T23:13:05.885Z,77.33
2022-12-03T23:17:17.407Z,77.33
2022-12-03T23:21:33.462Z,77.48
2022-12-03T23:25:56.709Z,77.84
2022-12-03T23:30:09.206Z,77.65
2022-12-03T23:34:20.881Z,78.00
2022-12-03T23:38:32.515Z,77.99
2022-12-03T23:42:44.080Z,77.69
2022-12-03T23:46:55.680Z,78.05
2022-12-03T23:51:12.815Z,77.91
2022-12-03T23:55:24.454Z,77.93
2022-12-03T23:59:36.085Z,78.05
